Christina G — ZCXO5 — position and weather

sailwx.info

Track history (hours):
 
Tides and Currents Weather Stations Pressure Air Temp Water Temp Dewpoint Dewpoint Depression Visibility Wind Speed Wind Dir Waves Ship Positions

Christina G

Last reported at 2015-Aug-01 11:28 UTC. Time now 2015-Aug-05 10:31 UTC.
Position N 43°28' E 007°17'.

Length 33 m; draft 2.5 m.

MMSI: 319032100.

Date/timePositionNaut miles runAvg speedWind from/ knotsBaromVisibWave heightAir tempDewpointWater temp
2015-Aug-01 11:28N 43°28' E 007°17'9 9.9
2015-Aug-01 10:34N 43°33' E 007°07'1 0.5
2015-Aug-01 09:33N 43°34' E 007°07'0 0.0
2015-Aug-01 08:34N 43°34' E 007°07'3 3.0
2015-Aug-01 07:34N 43°34' E 007°11'9 0.2
2015-Jul-30 18:27N 43°42' E 007°17'5 5.0
2015-Jul-30 17:27N 43°38' E 007°22'2611.1
2015-Jul-30 15:07N 43°29' E 007°55'610.0
2015-Jul-30 14:32N 43°27' E 008°03'10 9.3
2015-Jul-30 13:30N 43°23' E 008°15'44 8.8
2015-Jul-30 08:30N 43°05' E 009°10'15 7.1
2015-Jul-30 06:27N 42°58' E 009°28'0 0.0
2015-Jul-30 05:32N 42°58' E 009°28'0 0.0
2015-Jul-30 04:26N 42°58' E 009°28'0 0.0
2015-Jul-29 16:13N 42°58' E 009°28'0 0.0
2015-Jul-29 15:33N 42°58' E 009°28'14 2.6
2015-Jul-29 10:07N 42°44' E 009°29'3 0.2
2015-Jul-28 16:28N 42°41' E 009°27'7 7.3
2015-Jul-28 15:34N 42°42' E 009°36'2510.2
2015-Jul-28 13:09N 42°49' E 010°08'5 8.2
2015-Jul-28 12:31N 42°49' E 010°15'8 2.7
2015-Jul-28 09:33N 42°45' E 010°25'0 0.0
2015-Jul-28 08:27N 42°45' E 010°25'  
2015-Jul-24 06:32N 42°58' E 009°27'2 0.2
2015-Jul-23 17:26N 42°57' E 009°30'49 2.1
2015-Jul-22 18:33N 42°53' E 010°37'  
Track history (hours):
 
Tides and Currents Weather Stations Pressure Air Temp Water Temp Dewpoint Dewpoint Depression Visibility Wind Speed Wind Dir Waves Ship Positions

Christina G

Last reported at 2015-Aug-01 11:28 UTC. Time now 2015-Aug-05 10:31 UTC.
Position N 43°28' E 007°17'.

Length 33 m; draft 2.5 m.

MMSI: 319032100.

Date/timePositionNaut miles runAvg speedWind from/ knotsBaromVisibWave heightAir tempDewpointWater temp
2015-Aug-01 11:28N 43°28' E 007°17'9 9.9
2015-Aug-01 10:34N 43°33' E 007°07'1 0.5
2015-Aug-01 09:33N 43°34' E 007°07'0 0.0
2015-Aug-01 08:34N 43°34' E 007°07'3 3.0
2015-Aug-01 07:34N 43°34' E 007°11'9 0.2
2015-Jul-30 18:27N 43°42' E 007°17'5 5.0
2015-Jul-30 17:27N 43°38' E 007°22'2611.1
2015-Jul-30 15:07N 43°29' E 007°55'610.0
2015-Jul-30 14:32N 43°27' E 008°03'10 9.3
2015-Jul-30 13:30N 43°23' E 008°15'44 8.8
2015-Jul-30 08:30N 43°05' E 009°10'15 7.1
2015-Jul-30 06:27N 42°58' E 009°28'0 0.0
2015-Jul-30 05:32N 42°58' E 009°28'0 0.0
2015-Jul-30 04:26N 42°58' E 009°28'0 0.0
2015-Jul-29 16:13N 42°58' E 009°28'0 0.0
2015-Jul-29 15:33N 42°58' E 009°28'14 2.6
2015-Jul-29 10:07N 42°44' E 009°29'3 0.2
2015-Jul-28 16:28N 42°41' E 009°27'7 7.3
2015-Jul-28 15:34N 42°42' E 009°36'2510.2
2015-Jul-28 13:09N 42°49' E 010°08'5 8.2
2015-Jul-28 12:31N 42°49' E 010°15'8 2.7
2015-Jul-28 09:33N 42°45' E 010°25'0 0.0
2015-Jul-28 08:27N 42°45' E 010°25'  
2015-Jul-24 06:32N 42°58' E 009°27'2 0.2
2015-Jul-23 17:26N 42°57' E 009°30'49 2.1
2015-Jul-22 18:33N 42°53' E 010°37'  

Dump ship's entire track history